createdAt,value
2022-08-25T00:01:53.193Z,2.92
2022-08-25T00:04:21.988Z,3.00
2022-08-25T00:06:49.605Z,3.15
2022-08-25T00:09:18.629Z,2.72
2022-08-25T00:11:49.195Z,3.50
2022-08-25T00:14:45.144Z,2.90
2022-08-25T00:17:12.190Z,2.67
2022-08-25T00:19:39.172Z,3.17
2022-08-25T00:22:07.788Z,2.75
2022-08-25T00:24:34.621Z,2.90
2022-08-25T00:27:01.897Z,2.85
2022-08-25T00:29:30.872Z,2.90
2022-08-25T00:31:58.324Z,2.67
2022-08-25T00:34:29.666Z,2.60
2022-08-25T00:36:56.691Z,2.90
2022-08-25T00:39:24.643Z,2.70
2022-08-25T00:41:53.960Z,2.83
2022-08-25T00:44:21.231Z,2.80
2022-08-25T00:46:53.622Z,3.10
2022-08-25T00:49:36.288Z,3.10
2022-08-25T00:52:10.716Z,2.80
2022-08-25T00:54:47.561Z,2.70
2022-08-25T00:57:18.240Z,2.75
2022-08-25T00:59:49.063Z,3.20
2022-08-25T01:02:17.853Z,2.70
2022-08-25T01:04:49.205Z,2.80
2022-08-25T01:07:18.973Z,3.10
2022-08-25T01:09:48.175Z,2.75
2022-08-25T01:12:15.266Z,2.75
2022-08-25T01:14:43.153Z,3.20
2022-08-25T01:17:09.919Z,2.78
2022-08-25T01:19:36.721Z,3.10
2022-08-25T01:22:05.569Z,3.00
2022-08-25T01:24:54.743Z,3.22
2022-08-25T01:27:21.619Z,2.85
2022-08-25T01:29:49.230Z,3.03
2022-08-25T01:32:16.037Z,2.97
2022-08-25T01:34:45.231Z,2.80
2022-08-25T01:37:15.705Z,3.17
2022-08-25T01:39:43.370Z,3.15
2022-08-25T01:42:18.070Z,3.00
2022-08-25T01:44:46.264Z,2.85
2022-08-25T01:47:14.780Z,3.00
2022-08-25T01:49:41.620Z,2.88
2022-08-25T01:52:11.381Z,3.20
2022-08-25T01:54:38.623Z,2.88
2022-08-25T01:57:05.527Z,3.20
2022-08-25T01:59:32.686Z,2.92
2022-08-25T02:02:00.219Z,3.03
2022-08-25T02:04:32.158Z,3.03
2022-08-25T02:07:00.871Z,2.97
2022-08-25T02:09:27.747Z,2.90
2022-08-25T02:11:54.786Z,2.90
2022-08-25T02:14:21.921Z,3.05
2022-08-25T02:16:50.985Z,3.45
2022-08-25T02:19:18.774Z,3.45
2022-08-25T02:21:45.984Z,3.10
2022-08-25T02:24:14.084Z,3.28
2022-08-25T02:26:41.381Z,2.90
2022-08-25T02:29:09.219Z,3.10
2022-08-25T02:31:36.743Z,3.28
2022-08-25T02:34:04.414Z,3.20
2022-08-25T02:36:32.334Z,3.25
2022-08-25T02:38:59.477Z,3.47
2022-08-25T02:41:30.737Z,3.50
2022-08-25T02:44:02.802Z,3.15
2022-08-25T02:46:31.143Z,3.08
2022-08-25T02:48:58.803Z,3.17
2022-08-25T02:51:30.087Z,3.00
2022-08-25T02:53:58.624Z,3.20
2022-08-25T02:56:27.451Z,3.15
2022-08-25T02:58:54.270Z,3.55
2022-08-25T03:01:22.106Z,3.58
2022-08-25T03:03:55.656Z,3.40
2022-08-25T03:06:24.127Z,3.55
2022-08-25T03:08:52.220Z,3.58
2022-08-25T03:11:19.542Z,3.75
2022-08-25T03:13:47.050Z,3.50
2022-08-25T03:16:14.013Z,3.70
2022-08-25T03:18:42.274Z,3.72
2022-08-25T03:21:10.271Z,3.50
2022-08-25T03:23:37.303Z,3.80
2022-08-25T03:26:22.969Z,3.88
2022-08-25T03:28:49.808Z,3.70
2022-08-25T03:31:16.709Z,4.03
2022-08-25T03:33:43.563Z,3.88
2022-08-25T03:36:12.337Z,4.22
2022-08-25T03:38:39.913Z,4.65
2022-08-25T03:41:18.554Z,4.07
2022-08-25T03:43:45.394Z,3.80
2022-08-25T03:46:30.712Z,3.95
2022-08-25T03:48:58.219Z,3.95
2022-08-25T03:51:28.491Z,3.60
2022-08-25T03:53:58.294Z,4.03
2022-08-25T03:56:27.152Z,4.00
2022-08-25T03:58:55.292Z,3.45
2022-08-25T04:01:22.987Z,4.05
2022-08-25T04:03:50.007Z,4.15
2022-08-25T04:06:18.502Z,3.80
2022-08-25T04:08:45.867Z,3.60
2022-08-25T04:11:18.412Z,4.28
2022-08-25T04:13:46.687Z,4.03
2022-08-25T04:16:15.958Z,4.05
2022-08-25T04:18:43.941Z,4.20
2022-08-25T04:21:12.017Z,4.00
2022-08-25T04:23:41.772Z,3.80
2022-08-25T04:26:13.560Z,3.97
2022-08-25T04:28:41.070Z,3.95
2022-08-25T04:31:09.673Z,4.60
2022-08-25T04:33:38.199Z,4.20
2022-08-25T04:36:11.431Z,3.80
2022-08-25T04:41:09.035Z,3.72
2022-08-25T04:43:37.098Z,4.03
2022-08-25T04:46:14.664Z,4.13
2022-08-25T04:48:48.041Z,4.53
2022-08-25T04:51:18.292Z,4.30
2022-08-25T04:53:45.570Z,4.10
2022-08-25T04:56:17.363Z,4.07
2022-08-25T04:58:45.423Z,4.63
2022-08-25T05:01:17.887Z,4.35
2022-08-25T05:03:46.963Z,4.35
2022-08-25T05:06:16.222Z,4.93
2022-08-25T05:08:45.982Z,4.60
2022-08-25T05:11:14.923Z,5.10
2022-08-25T05:13:43.340Z,4.53
2022-08-25T05:16:11.500Z,4.95
2022-08-25T05:18:38.826Z,4.68
2022-08-25T05:21:18.848Z,4.75
2022-08-25T05:23:47.040Z,4.80
2022-08-25T05:26:20.665Z,4.93
2022-08-25T05:31:17.767Z,4.97
2022-08-25T05:33:44.723Z,5.35
2022-08-25T05:36:14.142Z,5.00
2022-08-25T05:38:41.901Z,4.93
2022-08-25T05:41:11.926Z,5.05
2022-08-25T05:43:40.628Z,4.80
2022-08-25T05:46:08.632Z,5.00
2022-08-25T05:48:36.239Z,4.68
2022-08-25T05:51:05.482Z,5.22
2022-08-25T05:53:33.989Z,4.45
2022-08-25T05:56:01.811Z,5.15
2022-08-25T05:58:30.203Z,5.10
2022-08-25T06:00:58.529Z,5.28
2022-08-25T06:03:25.426Z,5.05
2022-08-25T06:05:52.248Z,5.25
2022-08-25T06:08:19.954Z,4.85
2022-08-25T06:10:52.282Z,4.95
2022-08-25T06:13:27.001Z,5.60
2022-08-25T06:16:00.098Z,4.70
2022-08-25T06:18:27.011Z,4.63
2022-08-25T06:20:54.082Z,4.55
2022-08-25T06:23:20.894Z,5.38
2022-08-25T06:25:52.355Z,4.75
2022-08-25T06:28:20.424Z,5.35
2022-08-25T06:30:48.209Z,4.68
2022-08-25T06:33:15.593Z,4.90
2022-08-25T06:35:43.520Z,4.95
2022-08-25T06:38:11.154Z,5.03
2022-08-25T06:40:38.628Z,5.18
2022-08-25T06:43:08.871Z,4.53
2022-08-25T06:45:36.096Z,4.28
2022-08-25T06:48:03.037Z,4.95
2022-08-25T06:50:30.008Z,4.82
2022-08-25T06:52:57.088Z,4.70
2022-08-25T06:55:23.924Z,5.35
2022-08-25T06:58:03.940Z,4.90
2022-08-25T07:00:32.818Z,4.80
2022-08-25T07:03:01.453Z,4.97
2022-08-25T07:05:40.919Z,4.57
2022-08-25T07:08:11.943Z,5.10
2022-08-25T07:10:39.101Z,4.93
2022-08-25T07:13:05.879Z,5.00
2022-08-25T07:15:32.738Z,4.95
2022-08-25T07:17:59.514Z,4.88
2022-08-25T07:22:58.530Z,4.95
2022-08-25T07:25:25.354Z,5.00
2022-08-25T07:27:55.803Z,6.20
2022-08-25T07:30:25.270Z,5.18
2022-08-25T07:32:55.464Z,4.60
2022-08-25T07:35:26.180Z,4.82
2022-08-25T07:37:57.151Z,4.95
2022-08-25T07:40:32.023Z,5.22
2022-08-25T07:43:02.090Z,5.25
2022-08-25T07:45:31.933Z,4.85
2022-08-25T07:48:04.564Z,4.68
2022-08-25T07:50:31.685Z,4.93
2022-08-25T07:52:59.176Z,4.57
2022-08-25T07:55:28.509Z,4.95
2022-08-25T07:57:57.201Z,5.20
2022-08-25T08:00:28.033Z,4.82
2022-08-25T08:02:55.390Z,5.30
2022-08-25T08:05:24.049Z,4.90
2022-08-25T08:07:51.740Z,5.50
2022-08-25T08:13:07.560Z,5.28
2022-08-25T08:15:35.093Z,5.13
2022-08-25T08:18:03.214Z,5.38
2022-08-25T08:20:42.394Z,5.18
2022-08-25T08:23:11.183Z,5.05
2022-08-25T08:25:38.026Z,5.30
2022-08-25T08:28:07.051Z,5.50
2022-08-25T08:30:36.848Z,5.50
2022-08-25T08:33:10.041Z,4.80
2022-08-25T08:35:38.335Z,4.53
2022-08-25T08:38:13.163Z,5.10
2022-08-25T08:41:29.662Z,4.68
2022-08-25T08:44:26.186Z,5.55
2022-08-25T08:47:04.374Z,5.78
2022-08-25T08:49:49.529Z,5.72
2022-08-25T08:52:19.473Z,5.38
2022-08-25T08:54:52.652Z,4.72
2022-08-25T08:57:25.383Z,5.65
2022-08-25T08:59:57.692Z,5.32
2022-08-25T09:02:51.657Z,4.93
2022-08-25T09:05:22.531Z,5.03
2022-08-25T09:07:59.831Z,5.00
2022-08-25T09:10:34.592Z,5.28
2022-08-25T09:13:19.146Z,5.03
2022-08-25T09:16:33.722Z,5.10
2022-08-25T09:19:23.914Z,5.03
2022-08-25T09:22:33.375Z,5.25
2022-08-25T09:25:39.791Z,4.47
2022-08-25T09:28:28.437Z,4.90
2022-08-25T09:31:02.070Z,4.60
2022-08-25T09:35:57.739Z,4.63
2022-08-25T09:38:26.263Z,4.82
2022-08-25T09:40:57.982Z,4.97
2022-08-25T09:43:37.069Z,5.00
2022-08-25T09:46:27.014Z,5.22
2022-08-25T09:48:57.614Z,4.47
2022-08-25T09:51:38.018Z,4.55
2022-08-25T09:54:18.143Z,4.40
2022-08-25T09:57:01.185Z,4.32
2022-08-25T09:59:38.178Z,4.47
2022-08-25T10:02:28.793Z,4.63
2022-08-25T10:04:56.830Z,5.60
2022-08-25T10:07:36.700Z,4.30
2022-08-25T10:10:16.756Z,4.13
2022-08-25T10:12:51.514Z,4.40
2022-08-25T10:15:30.723Z,5.38
2022-08-25T10:18:17.411Z,4.00
2022-08-25T10:20:44.690Z,4.30
2022-08-25T10:23:19.041Z,4.50
2022-08-25T10:26:00.392Z,4.40
2022-08-25T10:28:55.363Z,4.32
2022-08-25T10:31:36.742Z,3.92
2022-08-25T10:34:05.493Z,3.90
2022-08-25T10:36:47.059Z,4.30
2022-08-25T10:39:36.331Z,3.92
2022-08-25T10:42:30.746Z,4.40
2022-08-25T10:45:44.723Z,4.18
2022-08-25T10:48:30.272Z,3.90
2022-08-25T10:51:25.391Z,3.72
2022-08-25T10:54:17.309Z,3.90
2022-08-25T10:56:58.448Z,4.22
2022-08-25T10:59:46.950Z,3.90
2022-08-25T11:02:19.983Z,3.90
2022-08-25T11:04:59.526Z,3.72
2022-08-25T11:07:33.995Z,4.10
2022-08-25T11:10:25.515Z,4.20
2022-08-25T11:12:59.706Z,4.45
2022-08-25T11:16:15.598Z,4.00
2022-08-25T11:18:59.419Z,4.00
2022-08-25T11:21:49.608Z,3.90
2022-08-25T11:24:39.963Z,4.00
2022-08-25T11:27:15.835Z,4.00
2022-08-25T11:29:51.935Z,4.10
2022-08-25T11:32:21.090Z,3.65
2022-08-25T11:34:47.908Z,3.70
2022-08-25T11:37:23.934Z,3.80
2022-08-25T11:40:21.209Z,3.70
2022-08-25T11:43:25.260Z,3.63
2022-08-25T11:48:59.607Z,3.00
2022-08-25T11:51:36.487Z,3.50
2022-08-25T11:54:18.182Z,3.30
2022-08-25T11:56:53.685Z,3.40
2022-08-25T12:00:00.255Z,3.17
2022-08-25T12:02:44.221Z,3.45
2022-08-25T12:05:21.999Z,3.35
2022-08-25T12:08:26.107Z,3.50
2022-08-25T12:11:10.943Z,2.80
2022-08-25T12:13:47.990Z,3.20
2022-08-25T12:16:36.159Z,3.28
2022-08-25T12:19:31.095Z,3.05
2022-08-25T12:22:19.187Z,3.10
2022-08-25T12:25:21.176Z,3.80
2022-08-25T12:28:11.748Z,3.17
2022-08-25T12:30:54.843Z,2.95
2022-08-25T12:33:43.249Z,2.97
2022-08-25T12:36:25.337Z,3.20
2022-08-25T12:38:53.684Z,3.10
2022-08-25T12:41:26.319Z,2.67
2022-08-25T12:44:08.538Z,2.75
2022-08-25T12:46:39.515Z,2.90
2022-08-25T12:49:15.621Z,2.53
2022-08-25T12:52:21.401Z,2.92
2022-08-25T12:55:06.114Z,2.40
2022-08-25T12:57:57.828Z,2.58
2022-08-25T13:00:35.334Z,2.63
2022-08-25T13:06:14.881Z,2.40
2022-08-25T13:08:46.686Z,2.88
2022-08-25T13:11:20.544Z,2.63
2022-08-25T13:14:09.165Z,2.17
2022-08-25T13:16:37.214Z,2.58
2022-08-25T13:19:06.809Z,2.65
2022-08-25T13:21:38.138Z,2.42
2022-08-25T13:24:19.753Z,2.63
2022-08-25T13:26:50.290Z,2.60
2022-08-25T13:29:24.293Z,2.30
2022-08-25T13:32:02.971Z,2.40
2022-08-25T13:34:39.143Z,2.50
2022-08-25T13:40:25.887Z,2.58
2022-08-25T13:43:07.951Z,3.05
2022-08-25T13:45:41.004Z,2.80
2022-08-25T13:48:21.190Z,2.60
2022-08-25T13:50:52.079Z,2.90
2022-08-25T13:53:25.532Z,2.47
2022-08-25T13:55:56.962Z,2.50
2022-08-25T13:58:44.598Z,2.70
2022-08-25T14:01:51.061Z,2.50
2022-08-25T14:04:32.290Z,2.60
2022-08-25T14:07:25.445Z,2.53
2022-08-25T14:09:58.788Z,2.63
2022-08-25T14:12:33.737Z,3.10
2022-08-25T14:15:06.687Z,2.85
2022-08-25T14:17:39.072Z,2.65
2022-08-25T14:20:17.879Z,2.38
2022-08-25T14:22:44.736Z,2.30
2022-08-25T14:25:11.554Z,2.60
2022-08-25T14:28:05.721Z,2.63
2022-08-25T14:30:32.554Z,2.72
2022-08-25T14:33:02.362Z,2.83
2022-08-25T14:35:29.631Z,2.60
2022-08-25T14:37:58.320Z,2.60
2022-08-25T14:40:25.175Z,3.00
2022-08-25T14:42:52.011Z,2.70
2022-08-25T14:45:19.704Z,3.30
2022-08-25T14:47:50.006Z,2.80
2022-08-25T14:50:24.956Z,2.78
2022-08-25T14:52:52.309Z,2.60
2022-08-25T14:55:31.247Z,2.60
2022-08-25T14:57:59.299Z,2.80
2022-08-25T15:00:26.500Z,2.60
2022-08-25T15:02:55.099Z,2.60
2022-08-25T15:05:28.279Z,2.50
2022-08-25T15:08:14.335Z,2.85
2022-08-25T15:10:43.393Z,2.53
2022-08-25T15:13:10.698Z,2.55
2022-08-25T15:15:52.996Z,2.80
2022-08-25T15:18:21.982Z,2.33
2022-08-25T15:20:50.136Z,2.50
2022-08-25T15:23:18.600Z,2.30
2022-08-25T15:25:47.922Z,2.90
2022-08-25T15:28:17.307Z,2.60
2022-08-25T15:30:45.581Z,2.65
2022-08-25T15:33:13.616Z,2.83
2022-08-25T15:35:41.573Z,2.80
2022-08-25T15:38:10.362Z,2.60
2022-08-25T15:40:39.078Z,2.70
2022-08-25T15:43:06.198Z,2.83
2022-08-25T15:45:36.083Z,2.50
2022-08-25T15:48:04.412Z,2.55
2022-08-25T15:50:34.511Z,2.55
2022-08-25T15:53:01.421Z,2.50
2022-08-25T15:55:28.276Z,2.53
2022-08-25T15:57:55.798Z,2.60
2022-08-25T16:00:22.753Z,2.60
2022-08-25T16:02:50.350Z,2.60
2022-08-25T16:05:17.300Z,2.88
2022-08-25T16:07:46.093Z,2.85
2022-08-25T16:10:18.470Z,2.55
2022-08-25T16:12:45.477Z,2.60
2022-08-25T16:15:12.592Z,2.67
2022-08-25T16:17:40.702Z,2.83
2022-08-25T16:20:13.662Z,2.85
2022-08-25T16:22:41.322Z,2.97
2022-08-25T16:25:08.722Z,3.08
2022-08-25T16:27:38.964Z,2.40
2022-08-25T16:30:08.213Z,2.90
2022-08-25T16:32:35.637Z,2.70
2022-08-25T16:35:03.650Z,3.08
2022-08-25T16:37:30.452Z,2.85
2022-08-25T16:39:57.594Z,2.97
2022-08-25T16:42:26.374Z,2.67
2022-08-25T16:44:54.129Z,2.53
2022-08-25T16:47:25.134Z,2.80
2022-08-25T16:49:54.051Z,2.70
2022-08-25T16:52:40.688Z,2.97
2022-08-25T16:55:14.262Z,3.10
2022-08-25T16:57:54.304Z,2.50
2022-08-25T17:00:24.890Z,3.15
2022-08-25T17:02:59.255Z,3.20
2022-08-25T17:05:28.188Z,2.83
2022-08-25T17:08:14.880Z,2.90
2022-08-25T17:10:43.442Z,2.97
2022-08-25T17:13:11.415Z,3.17
2022-08-25T17:15:43.839Z,2.85
2022-08-25T17:18:12.771Z,3.28
2022-08-25T17:20:41.202Z,2.60
2022-08-25T17:23:12.355Z,3.17
2022-08-25T17:25:42.989Z,2.90
2022-08-25T17:28:12.057Z,3.00
2022-08-25T17:30:39.352Z,3.20
2022-08-25T17:33:06.269Z,3.08
2022-08-25T17:35:39.171Z,3.10
2022-08-25T17:38:06.339Z,3.33
2022-08-25T17:40:34.016Z,2.78
2022-08-25T17:43:01.849Z,3.65
2022-08-25T17:45:28.695Z,2.80
2022-08-25T17:47:55.674Z,2.80
2022-08-25T17:50:22.608Z,3.22
2022-08-25T17:52:49.376Z,3.40
2022-08-25T17:55:16.643Z,3.17
2022-08-25T17:57:43.755Z,3.55
2022-08-25T18:00:12.557Z,3.10
2022-08-25T18:02:40.543Z,3.17
2022-08-25T18:05:07.603Z,3.15
2022-08-25T18:07:34.454Z,3.30
2022-08-25T18:10:01.237Z,3.20
2022-08-25T18:12:29.103Z,3.50
2022-08-25T18:14:57.101Z,3.30
2022-08-25T18:17:25.880Z,3.42
2022-08-25T18:19:52.956Z,3.22
2022-08-25T18:22:20.408Z,3.40
2022-08-25T18:24:47.253Z,3.47
2022-08-25T18:27:14.147Z,3.58
2022-08-25T18:29:41.446Z,3.53
2022-08-25T18:32:09.571Z,3.60
2022-08-25T18:34:39.260Z,3.40
2022-08-25T18:37:25.735Z,3.67
2022-08-25T18:40:11.084Z,3.47
2022-08-25T18:42:38.595Z,3.60
2022-08-25T18:45:08.044Z,3.60
2022-08-25T18:50:06.725Z,3.50
2022-08-25T18:52:33.899Z,3.65
2022-08-25T18:55:01.462Z,4.15
2022-08-25T18:57:28.262Z,4.00
2022-08-25T18:59:55.804Z,4.25
2022-08-25T19:02:22.643Z,3.70
2022-08-25T19:04:52.685Z,3.72
2022-08-25T19:07:19.676Z,4.00
2022-08-25T19:09:46.634Z,4.05
2022-08-25T19:12:22.193Z,4.00
2022-08-25T19:14:49.775Z,3.80
2022-08-25T19:17:17.154Z,4.15
2022-08-25T19:19:44.700Z,4.20
2022-08-25T19:22:38.081Z,4.00
2022-08-25T19:24:58.964Z,3.78
2022-08-25T19:27:26.150Z,4.28
2022-08-25T19:29:53.274Z,4.38
2022-08-25T19:32:20.224Z,4.25
2022-08-25T19:34:51.355Z,4.20
2022-08-25T19:37:19.193Z,4.00
2022-08-25T19:39:52.631Z,4.20
2022-08-25T19:42:34.942Z,4.38
2022-08-25T19:45:09.606Z,4.50
2022-08-25T19:47:37.642Z,4.78
2022-08-25T19:50:09.312Z,4.50
2022-08-25T19:52:36.839Z,4.70
2022-08-25T19:55:04.059Z,4.57
2022-08-25T19:57:42.436Z,4.55
2022-08-25T20:00:16.005Z,4.70
2022-08-25T20:02:43.446Z,4.75
2022-08-25T20:05:11.186Z,4.93
2022-08-25T20:07:38.469Z,4.40
2022-08-25T20:10:08.959Z,4.25
2022-08-25T20:12:41.539Z,4.22
2022-08-25T20:15:09.542Z,4.53
2022-08-25T20:17:36.366Z,4.35
2022-08-25T20:20:06.474Z,4.32
2022-08-25T20:22:33.924Z,4.10
2022-08-25T20:25:22.192Z,4.85
2022-08-25T20:27:53.693Z,3.85
2022-08-25T20:30:30.584Z,4.32
2022-08-25T20:32:58.273Z,4.05
2022-08-25T20:35:27.029Z,4.43
2022-08-25T20:37:55.551Z,4.38
2022-08-25T20:40:25.583Z,4.72
2022-08-25T20:42:53.637Z,4.53
2022-08-25T20:45:21.918Z,4.50
2022-08-25T20:47:49.782Z,4.32
2022-08-25T20:50:16.978Z,4.25
2022-08-25T20:52:44.509Z,4.35
2022-08-25T20:55:12.410Z,4.40
2022-08-25T20:57:39.575Z,4.18
2022-08-25T21:00:09.216Z,4.30
2022-08-25T21:02:36.673Z,4.22
2022-08-25T21:05:04.151Z,4.30
2022-08-25T21:07:31.306Z,4.40
2022-08-25T21:10:02.938Z,4.07
2022-08-25T21:12:31.425Z,3.90
2022-08-25T21:14:58.636Z,4.22
2022-08-25T21:17:25.628Z,4.10
2022-08-25T21:19:52.459Z,4.57
2022-08-25T21:22:19.316Z,4.30
2022-08-25T21:24:46.102Z,4.35
2022-08-25T21:27:13.033Z,4.22
2022-08-25T21:29:44.702Z,4.07
2022-08-25T21:32:21.745Z,4.40
2022-08-25T21:34:55.266Z,5.05
2022-08-25T21:37:23.577Z,4.32
2022-08-25T21:39:51.389Z,4.20
2022-08-25T21:42:23.937Z,4.30
2022-08-25T21:44:52.568Z,4.78
2022-08-25T21:47:21.089Z,4.47
2022-08-25T21:49:48.462Z,4.93
2022-08-25T21:52:15.516Z,4.07
2022-08-25T21:54:44.053Z,4.15
2022-08-25T21:57:10.854Z,4.28
2022-08-25T21:59:40.538Z,5.03
2022-08-25T22:02:10.489Z,4.68
2022-08-25T22:04:39.508Z,4.35
2022-08-25T22:07:08.102Z,4.35
2022-08-25T22:09:36.057Z,4.57
2022-08-25T22:12:03.997Z,5.15
2022-08-25T22:14:31.176Z,4.57
2022-08-25T22:16:58.009Z,4.25
2022-08-25T22:19:25.664Z,4.20
2022-08-25T22:21:53.997Z,5.03
2022-08-25T22:24:21.115Z,4.32
2022-08-25T22:26:49.157Z,4.57
2022-08-25T22:29:25.030Z,4.88
2022-08-25T22:32:00.690Z,4.60
2022-08-25T22:34:33.082Z,4.18
2022-08-25T22:37:01.820Z,4.32
2022-08-25T22:39:31.575Z,4.75
2022-08-25T22:41:59.207Z,4.53
2022-08-25T22:44:26.736Z,4.47
2022-08-25T22:46:53.851Z,4.65
2022-08-25T22:49:21.903Z,4.22
2022-08-25T22:51:48.981Z,4.53
2022-08-25T22:54:16.020Z,4.70
2022-08-25T22:56:43.454Z,4.88
2022-08-25T22:59:13.765Z,4.88
2022-08-25T23:01:43.129Z,4.30
2022-08-25T23:04:10.809Z,4.57
2022-08-25T23:06:39.246Z,4.90
2022-08-25T23:09:08.243Z,4.00
2022-08-25T23:11:38.570Z,4.50
2022-08-25T23:14:08.405Z,4.72
2022-08-25T23:16:35.443Z,4.60
2022-08-25T23:19:02.262Z,4.55
2022-08-25T23:21:48.013Z,4.63
2022-08-25T23:24:30.117Z,4.70
2022-08-25T23:27:02.360Z,4.88
2022-08-25T23:29:32.080Z,4.88
2022-08-25T23:31:59.009Z,4.72
2022-08-25T23:34:26.821Z,4.68
2022-08-25T23:36:55.911Z,4.50
2022-08-25T23:39:23.259Z,4.70
2022-08-25T23:41:51.732Z,4.70
2022-08-25T23:44:20.802Z,4.60
2022-08-25T23:46:48.624Z,4.93
2022-08-25T23:49:18.397Z,5.13
2022-08-25T23:51:48.069Z,4.95
2022-08-25T23:54:16.450Z,4.80
2022-08-25T23:56:51.396Z,5.22
2022-08-25T23:59:20.455Z,5.03
